Time;durP1;ratioP1;P1;durP2;ratioP2;P2;SDS_P1;SDS_P2;PMS_P1;PMS_P2;Temp;Humidity;BMP_temperature;BMP_pressure;BME280_temperature;BME280_humidity;BME280_pressure;Samples;Min_cycle;Max_cycle;Signal;HPM_P1;HPM_P2
2021/12/04 00:00:36;;;;;;;7.87;4.37;;;0.70;99.90;;;;;;5131840;28;20102;-74
2021/12/04 00:03:05;;;;;;;8.03;4.70;;;0.70;99.90;;;;;;5129259;27;20730;-76
2021/12/04 00:05:31;;;;;;;8.57;5.07;;;0.70;99.90;;;;;;5114586;28;20105;-73
2021/12/04 00:07:58;;;;;;;6.20;5.20;;;0.70;99.90;;;;;;5115172;28;20453;-73
2021/12/04 00:10:30;;;;;;;8.67;5.30;;;0.80;99.90;;;;;;5115034;28;20073;-73
2021/12/04 00:12:58;;;;;;;7.87;5.27;;;0.80;99.90;;;;;;5114942;28;20492;-73
2021/12/04 00:15:24;;;;;;;6.83;4.57;;;0.80;99.90;;;;;;5114623;28;20043;-73
2021/12/04 00:17:51;;;;;;;7.00;5.23;;;0.80;99.90;;;;;;5115047;28;20043;-74
2021/12/04 00:20:19;;;;;;;9.73;3.97;;;0.80;99.90;;;;;;5114967;28;20483;-73
2021/12/04 00:22:46;;;;;;;6.93;4.33;;;0.80;99.90;;;;;;5114798;28;20054;-73
2021/12/04 00:25:12;;;;;;;7.13;5.20;;;0.80;99.90;;;;;;5114118;28;20452;-73
2021/12/04 00:27:39;;;;;;;7.10;5.73;;;0.90;99.90;;;;;;5114948;28;20048;-72
2021/12/04 00:30:08;;;;;;;5.87;5.20;;;0.90;99.90;;;;;;5114922;28;20117;-73
2021/12/04 00:32:36;;;;;;;9.77;4.67;;;0.90;99.90;;;;;;5114781;28;20453;-73
2021/12/04 00:35:10;;;;;;;5.97;4.23;;;0.90;99.90;;;;;;5114219;28;20116;-72
2021/12/04 00:37:59;;;;;;;11.17;6.67;;;0.90;99.90;;;;;;5114522;28;20507;-73
2021/12/04 00:43:25;;;;;;;8.37;5.70;;;0.90;99.90;;;;;;5114520;28;20078;-72
2021/12/04 00:51:31;;;;;;;7.63;5.63;;;0.90;99.90;;;;;;5106640;27;20099;-75
2021/12/04 00:54:00;;;;;;;6.17;4.27;;;0.90;99.90;;;;;;5113782;28;20052;-76
2021/12/04 00:56:27;;;;;;;10.87;5.90;;;0.90;99.90;;;;;;5114072;28;20051;-74
2021/12/04 00:58:53;;;;;;;6.17;5.00;;;0.90;99.90;;;;;;5114433;28;20047;-75
2021/12/04 01:01:21;;;;;;;11.80;6.30;;;0.90;99.90;;;;;;5114297;27;20039;-75
2021/12/04 01:03:48;;;;;;;8.43;3.93;;;0.90;99.90;;;;;;5114115;28;20048;-72
2021/12/04 01:06:14;;;;;;;7.63;6.60;;;0.90;99.90;;;;;;5113494;28;20043;-73
2021/12/04 01:08:41;;;;;;;7.10;5.37;;;0.90;99.90;;;;;;5113957;28;20047;-74
2021/12/04 01:11:09;;;;;;;13.53;5.70;;;0.90;99.90;;;;;;5113833;28;20097;-73
2021/12/04 01:13:36;;;;;;;7.33;5.60;;;1.00;99.90;;;;;;5114056;28;20431;-73
2021/12/04 01:16:04;;;;;;;8.27;6.23;;;0.90;99.90;;;;;;5112559;28;20047;-73
2021/12/04 01:18:30;;;;;;;7.27;4.80;;;1.00;99.90;;;;;;5113992;28;20048;-73
2021/12/04 01:20:57;;;;;;;7.70;6.17;;;1.00;99.90;;;;;;5113834;28;20047;-72
2021/12/04 01:23:25;;;;;;;8.73;6.17;;;1.00;99.90;;;;;;5113545;28;20059;-73
2021/12/04 01:25:51;;;;;;;8.97;7.07;;;1.00;99.90;;;;;;5113280;28;20052;-73
2021/12/04 01:28:19;;;;;;;11.20;7.20;;;1.00;99.90;;;;;;5113670;28;20039;-76
2021/12/04 01:30:46;;;;;;;7.83;5.63;;;1.00;99.90;;;;;;5113673;28;20044;-73
2021/12/04 01:33:13;;;;;;;6.70;4.97;;;1.00;99.90;;;;;;5113657;28;20096;-74
2021/12/04 01:35:39;;;;;;;6.30;5.43;;;1.00;99.90;;;;;;5112881;28;20047;-73
2021/12/04 01:38:06;;;;;;;6.80;4.57;;;1.00;99.90;;;;;;5113295;28;20051;-73
2021/12/04 01:40:33;;;;;;;14.10;7.50;;;1.10;99.90;;;;;;5113306;28;20129;-73
2021/12/04 01:42:59;;;;;;;6.10;5.07;;;1.10;99.90;;;;;;5113546;28;20084;-73
2021/12/04 01:45:28;;;;;;;12.33;7.37;;;1.10;99.90;;;;;;5112656;28;20602;-73
2021/12/04 01:47:58;;;;;;;9.57;7.03;;;1.10;99.90;;;;;;5113236;28;20043;-73
2021/12/04 01:50:26;;;;;;;7.20;5.47;;;1.10;99.90;;;;;;5113066;28;20100;-73
2021/12/04 01:52:55;;;;;;;7.00;5.30;;;1.10;99.90;;;;;;5113013;28;20043;-75
2021/12/04 01:55:24;;;;;;;8.80;5.90;;;1.10;99.90;;;;;;5112579;28;20045;-74
2021/12/04 01:57:51;;;;;;;10.03;7.03;;;1.20;99.90;;;;;;5113112;28;20048;-75
2021/12/04 02:00:18;;;;;;;10.77;6.97;;;1.10;99.90;;;;;;5113060;28;20040;-73
2021/12/04 02:02:46;;;;;;;8.10;5.93;;;1.10;99.90;;;;;;5112873;28;20085;-73
2021/12/04 02:05:12;;;;;;;9.03;5.40;;;1.10;99.90;;;;;;5112465;28;20040;-73
2021/12/04 02:07:39;;;;;;;4.90;4.40;;;1.10;99.90;;;;;;5112897;28;20069;-74
2021/12/04 02:10:07;;;;;;;6.80;5.10;;;1.10;99.90;;;;;;5112880;28;20043;-74
2021/12/04 02:12:34;;;;;;;10.77;5.37;;;1.10;99.90;;;;;;5112912;28;20047;-74
2021/12/04 02:15:02;;;;;;;9.10;6.93;;;1.10;99.90;;;;;;5112083;28;20051;-74
2021/12/04 02:17:28;;;;;;;8.77;5.17;;;1.10;99.90;;;;;;5112541;28;20048;-73
2021/12/04 02:20:12;;;;;;;11.80;6.77;;;1.10;99.90;;;;;;5112885;28;20100;-74
2021/12/04 02:22:39;;;;;;;8.40;6.67;;;1.10;99.90;;;;;;5068375;28;20045;-74
2021/12/04 02:25:08;;;;;;;8.90;6.33;;;1.10;99.90;;;;;;5069054;28;20101;-76
2021/12/04 02:27:35;;;;;;;12.43;6.73;;;1.10;99.90;;;;;;5069568;28;20047;-76
2021/12/04 02:30:02;;;;;;;10.97;6.07;;;1.10;99.90;;;;;;5069835;28;20098;-76
2021/12/04 02:32:31;;;;;;;6.80;5.57;;;1.10;99.90;;;;;;5069581;28;20056;-76
2021/12/04 02:34:57;;;;;;;9.77;6.17;;;1.10;99.90;;;;;;5068888;28;20147;-76
2021/12/04 02:37:25;;;;;;;6.53;5.93;;;1.10;99.90;;;;;;5069586;28;20056;-76
2021/12/04 02:39:58;;;;;;;7.63;5.67;;;1.10;99.90;;;;;;5069381;28;20040;-75
2021/12/04 02:42:27;;;;;;;8.77;6.60;;;1.10;99.90;;;;;;5069543;28;20106;-73
2021/12/04 02:44:55;;;;;;;6.23;5.13;;;1.20;99.90;;;;;;5068897;28;20058;-73
2021/12/04 02:47:21;;;;;;;8.40;7.17;;;1.20;99.90;;;;;;5069630;28;20075;-73
2021/12/04 02:49:48;;;;;;;10.17;6.40;;;1.10;99.90;;;;;;5069334;28;20518;-74
2021/12/04 02:52:16;;;;;;;8.87;6.13;;;1.10;99.90;;;;;;5069254;28;20048;-74
2021/12/04 02:54:44;;;;;;;12.90;6.70;;;1.10;99.90;;;;;;5111575;28;20507;-77
2021/12/04 02:57:13;;;;;;;6.27;5.17;;;1.10;99.90;;;;;;5112175;28;20040;-76
2021/12/04 02:59:41;;;;;;;10.03;7.40;;;1.20;99.90;;;;;;5112315;28;20051;-76
2021/12/04 03:02:16;;;;;;;12.77;8.80;;;1.20;99.90;;;;;;5112195;28;20468;-76
2021/12/04 03:04:42;;;;;;;10.70;7.20;;;1.20;99.90;;;;;;5111702;28;20043;-75
2021/12/04 03:07:09;;;;;;;8.43;5.90;;;1.20;99.90;;;;;;5112281;28;20453;-75
2021/12/04 03:09:36;;;;;;;6.17;5.17;;;1.20;99.90;;;;;;5112305;28;20044;-73
2021/12/04 03:12:05;;;;;;;7.43;5.30;;;1.20;99.90;;;;;;5112170;28;20039;-74
2021/12/04 03:14:31;;;;;;;9.00;6.23;;;1.20;99.90;;;;;;5111511;28;20097;-73
2021/12/04 03:16:58;;;;;;;8.43;7.30;;;1.20;99.90;;;;;;5112084;28;20135;-74
2021/12/04 03:19:25;;;;;;;7.87;6.33;;;1.20;99.90;;;;;;5112064;28;20048;-73
2021/12/04 03:21:52;;;;;;;7.97;5.40;;;1.20;99.90;;;;;;5112006;28;20825;-76
2021/12/04 03:24:19;;;;;;;8.77;6.23;;;1.20;99.90;;;;;;5111277;28;20082;-74
2021/12/04 03:26:49;;;;;;;9.77;7.23;;;1.20;99.90;;;;;;5111683;28;20060;-74
2021/12/04 03:29:19;;;;;;;12.57;5.90;;;1.20;99.90;;;;;;5112036;28;20043;-74
2021/12/04 03:32:08;;;;;;;10.40;5.83;;;1.20;99.90;;;;;;5111826;28;20483;-75
2021/12/04 03:40:12;;;;;;;9.47;6.27;;;1.20;99.90;;;;;;5114237;28;20488;-76
2021/12/04 03:42:40;;;;;;;7.53;5.47;;;1.20;99.90;;;;;;5115589;28;20055;-77
2021/12/04 03:45:10;;;;;;;6.60;4.83;;;1.20;99.90;;;;;;5114949;28;20052;-76
2021/12/04 03:47:40;;;;;;;7.10;5.33;;;1.20;99.90;;;;;;5115659;28;20047;-75
2021/12/04 03:50:08;;;;;;;12.63;7.13;;;1.30;99.90;;;;;;5115584;28;20048;-75
2021/12/04 03:52:36;;;;;;;11.03;6.70;;;1.30;99.90;;;;;;5115415;28;20141;-74
2021/12/04 03:55:04;;;;;;;7.50;5.67;;;1.30;99.90;;;;;;5115145;28;20043;-74
2021/12/04 03:57:31;;;;;;;12.37;7.70;;;1.30;99.90;;;;;;5115344;28;20044;-73
2021/12/04 03:59:59;;;;;;;9.00;5.37;;;1.20;99.90;;;;;;5115413;28;20043;-75
2021/12/04 04:02:27;;;;;;;6.03;5.20;;;1.20;99.90;;;;;;5115516;28;20340;-73
2021/12/04 04:04:54;;;;;;;16.67;8.40;;;1.30;99.90;;;;;;5114747;28;20044;-73
2021/12/04 04:07:22;;;;;;;8.17;5.53;;;1.30;99.90;;;;;;5115289;28;20051;-74
2021/12/04 04:09:48;;;;;;;10.40;7.10;;;1.30;99.90;;;;;;5115347;28;20124;-75
2021/12/04 04:12:15;;;;;;;10.47;6.57;;;1.30;99.90;;;;;;5115386;28;20441;-76
2021/12/04 04:14:42;;;;;;;7.67;5.03;;;1.30;99.90;;;;;;5114882;28;20047;-75
2021/12/04 04:17:08;;;;;;;8.93;8.03;;;1.30;99.90;;;;;;5115585;28;20065;-74
2021/12/04 04:19:36;;;;;;;10.27;8.00;;;1.30;99.90;;;;;;5115521;28;20071;-75
2021/12/04 04:22:03;;;;;;;11.00;6.67;;;1.30;99.90;;;;;;5114857;28;20449;-75
2021/12/04 04:24:31;;;;;;;8.43;6.63;;;1.40;99.90;;;;;;5114387;28;20051;-76
2021/12/04 04:26:58;;;;;;;8.43;4.70;;;1.40;99.90;;;;;;5114660;28;20487;-75
2021/12/04 04:29:25;;;;;;;8.00;5.87;;;1.30;99.90;;;;;;5115054;28;20093;-75
2021/12/04 04:31:53;;;;;;;9.73;5.67;;;1.30;99.90;;;;;;5114712;28;20458;-77
2021/12/04 04:34:26;;;;;;;7.17;6.50;;;1.40;99.90;;;;;;5114038;28;20048;-76
2021/12/04 04:37:15;;;;;;;10.10;5.57;;;1.40;99.90;;;;;;5114546;28;20100;-76
2021/12/04 04:59:03;;;;;;;6.70;5.97;;;1.40;99.90;;;;;;5114301;28;20518;-74
2021/12/04 05:01:55;;;;;;;8.67;5.40;;;1.30;99.90;;;;;;5114203;28;20051;-74
2021/12/04 05:12:48;;;;;;;9.43;5.73;;;1.30;99.90;;;;;;5113926;28;20058;-74
2021/12/04 05:15:20;;;;;;;6.10;4.43;;;1.30;99.90;;;;;;5113343;28;20130;-74
2021/12/04 05:17:54;;;;;;;9.17;5.57;;;1.40;99.90;;;;;;5114090;28;20051;-75
2021/12/04 05:20:25;;;;;;;8.53;5.50;;;1.30;99.90;;;;;;5113711;28;20047;-75
2021/12/04 05:22:52;;;;;;;11.82;6.75;;;1.30;99.90;;;;;;5113697;28;20039;-77
2021/12/04 05:25:20;;;;;;;8.20;6.43;;;1.30;99.90;;;;;;5113019;28;20048;-76
2021/12/04 05:27:47;;;;;;;7.33;5.20;;;1.30;99.90;;;;;;5114013;28;20069;-77
2021/12/04 05:30:14;;;;;;;11.93;5.80;;;1.30;99.90;;;;;;5113727;28;20048;-76
2021/12/04 05:32:40;;;;;;;7.63;5.93;;;1.30;99.90;;;;;;5113527;28;20047;-75
2021/12/04 05:35:08;;;;;;;8.67;5.03;;;1.30;99.90;;;;;;5112769;28;20339;-76
2021/12/04 05:37:34;;;;;;;11.70;5.40;;;1.30;99.90;;;;;;5112862;28;20077;-75
2021/12/04 05:40:01;;;;;;;6.30;4.23;;;1.30;99.90;;;;;;5113681;28;20047;-75
2021/12/04 05:42:30;;;;;;;7.47;5.97;;;1.30;99.90;;;;;;5115144;28;20051;-74
2021/12/04 05:44:56;;;;;;;8.47;6.53;;;1.30;99.90;;;;;;5114782;28;20456;-76
2021/12/04 05:47:25;;;;;;;8.00;5.27;;;1.30;99.90;;;;;;5114724;28;20560;-76
2021/12/04 05:49:58;;;;;;;6.07;4.90;;;1.30;99.90;;;;;;5114547;28;20047;-75
2021/12/04 05:52:37;;;;;;;8.77;5.80;;;1.30;99.90;;;;;;5114659;28;20048;-74
2021/12/04 05:55:15;;;;;;;8.63;6.00;;;1.30;99.90;;;;;;5114302;28;20047;-76
2021/12/04 05:57:44;;;;;;;12.30;6.87;;;1.30;99.90;;;;;;5114611;28;20051;-75
2021/12/04 06:00:16;;;;;;;8.00;5.67;;;1.30;99.90;;;;;;5114932;28;20043;-76
2021/12/04 06:02:43;;;;;;;10.40;5.47;;;1.30;99.90;;;;;;5113838;28;20043;-75
2021/12/04 06:05:11;;;;;;;8.07;6.37;;;1.30;99.90;;;;;;5112523;28;20443;-76
2021/12/04 06:07:38;;;;;;;8.43;6.27;;;1.30;99.90;;;;;;5112918;28;20048;-76
2021/12/04 06:10:06;;;;;;;6.80;6.03;;;1.30;99.90;;;;;;5112909;28;20457;-75
2021/12/04 06:12:34;;;;;;;7.80;5.57;;;1.30;99.90;;;;;;5112731;28;20487;-75
2021/12/04 06:15:02;;;;;;;7.10;6.40;;;1.30;99.90;;;;;;5112078;28;20411;-75
2021/12/04 06:17:29;;;;;;;4.50;3.33;;;1.30;99.90;;;;;;5114297;28;20047;-76
2021/12/04 06:22:41;;;;;;;7.47;5.20;;;1.30;99.90;;;;;;5112509;28;20109;-77
2021/12/04 06:25:10;;;;;;;6.20;5.50;;;1.30;99.90;;;;;;5111945;28;20069;-77
2021/12/04 06:27:38;;;;;;;10.17;5.30;;;1.30;99.90;;;;;;5112424;28;20487;-77
2021/12/04 06:30:08;;;;;;;5.73;4.03;;;1.30;99.90;;;;;;5112526;28;20073;-77
2021/12/04 06:32:36;;;;;;;8.23;6.33;;;1.30;99.90;;;;;;5112454;28;20047;-77
2021/12/04 06:35:03;;;;;;;1.93;1.80;;;1.30;99.90;;;;;;5111748;28;20055;-76
2021/12/04 06:37:30;;;;;;;8.23;5.93;;;1.30;99.90;;;;;;5112268;28;20043;-76
2021/12/04 06:39:57;;;;;;;6.47;4.63;;;1.30;99.90;;;;;;5112593;28;20043;-74
2021/12/04 06:42:24;;;;;;;5.43;4.53;;;1.30;99.90;;;;;;5112261;28;20540;-73
2021/12/04 06:44:53;;;;;;;5.10;4.63;;;1.30;99.90;;;;;;5111864;28;20044;-75
2021/12/04 06:47:21;;;;;;;5.53;4.57;;;1.30;99.90;;;;;;5112629;28;20433;-74
2021/12/04 06:49:50;;;;;;;6.77;4.90;;;1.30;99.90;;;;;;5112127;28;20510;-73
2021/12/04 06:52:19;;;;;;;9.10;5.90;;;1.40;99.90;;;;;;5112015;28;20039;-74
2021/12/04 06:54:53;;;;;;;6.40;5.70;;;1.40;99.90;;;;;;5111320;28;20047;-74
2021/12/04 06:57:20;;;;;;;6.07;4.80;;;1.30;99.90;;;;;;5112316;28;20039;-75
2021/12/04 06:59:48;;;;;;;9.83;6.20;;;1.40;99.90;;;;;;5112395;28;20048;-75
2021/12/04 07:02:15;;;;;;;3.80;3.23;;;1.30;99.90;;;;;;5112140;28;20081;-74
2021/12/04 07:04:43;;;;;;;7.77;6.27;;;1.30;99.90;;;;;;5111224;28;20039;-74
2021/12/04 07:07:11;;;;;;;15.23;6.83;;;1.30;99.90;;;;;;5112004;28;20047;-76
2021/12/04 07:09:39;;;;;;;4.50;4.00;;;1.40;99.90;;;;;;5112140;28;20477;-75
2021/12/04 07:12:07;;;;;;;12.47;6.67;;;1.40;99.90;;;;;;5112123;28;20040;-76
2021/12/04 07:14:34;;;;;;;6.43;4.33;;;1.30;99.90;;;;;;5112965;28;20175;-77
2021/12/04 07:17:03;;;;;;;8.03;5.57;;;1.30;99.90;;;;;;5116159;28;20044;-76
2021/12/04 07:19:30;;;;;;;9.60;5.50;;;1.40;99.90;;;;;;5116098;28;20043;-76
2021/12/04 07:21:58;;;;;;;8.83;5.93;;;1.40;99.90;;;;;;5116006;28;20051;-76
2021/12/04 07:24:26;;;;;;;8.20;4.93;;;1.40;99.90;;;;;;5115675;28;20052;-76
2021/12/04 07:26:53;;;;;;;5.80;5.20;;;1.40;99.90;;;;;;5116094;28;20134;-75
2021/12/04 07:29:19;;;;;;;12.20;6.20;;;1.50;99.90;;;;;;5116250;28;20051;-74
2021/12/04 07:31:46;;;;;;;9.87;6.17;;;1.50;99.90;;;;;;5115900;28;20048;-75
2021/12/04 07:34:13;;;;;;;12.57;5.57;;;1.50;99.90;;;;;;5115431;28;20055;-74
2021/12/04 07:36:39;;;;;;;7.13;5.33;;;1.50;99.90;;;;;;5115923;28;20051;-76
2021/12/04 07:39:08;;;;;;;9.67;6.77;;;1.40;99.90;;;;;;5115959;28;20043;-74
2021/12/04 07:41:38;;;;;;;5.43;4.90;;;1.40;99.90;;;;;;5115820;28;20047;-76
2021/12/04 07:44:08;;;;;;;10.30;6.07;;;1.50;99.90;;;;;;5115221;28;20059;-76
2021/12/04 07:46:34;;;;;;;6.73;4.83;;;1.60;99.90;;;;;;5115795;28;20135;-78
2021/12/04 07:49:01;;;;;;;7.50;6.80;;;1.50;99.90;;;;;;5115645;28;20101;-77
2021/12/04 07:51:28;;;;;;;7.43;5.13;;;1.50;99.90;;;;;;5115969;28;20108;-77
2021/12/04 07:53:54;;;;;;;9.93;5.87;;;1.60;99.90;;;;;;5115351;28;20043;-76
2021/12/04 07:56:22;;;;;;;9.23;7.43;;;1.60;99.90;;;;;;5114888;28;20051;-75
2021/12/04 07:58:49;;;;;;;10.17;7.87;;;1.60;99.90;;;;;;5115476;28;20530;-74
2021/12/04 08:01:17;;;;;;;10.27;5.97;;;1.60;99.90;;;;;;5115125;28;20051;-74
2021/12/04 08:03:43;;;;;;;7.97;6.50;;;1.60;99.90;;;;;;5115405;28;20112;-74
2021/12/04 08:06:10;;;;;;;10.17;8.30;;;1.60;99.90;;;;;;5114804;28;20452;-78
2021/12/04 08:08:36;;;;;;;10.33;7.23;;;1.60;99.90;;;;;;5116263;28;20089;-77
2021/12/04 08:11:04;;;;;;;12.47;8.13;;;1.60;99.90;;;;;;5115128;28;20051;-76
2021/12/04 08:13:32;;;;;;;10.60;6.37;;;1.70;99.90;;;;;;5115226;28;20066;-77
2021/12/04 08:15:59;;;;;;;8.67;6.27;;;1.70;99.90;;;;;;5114158;28;20047;-78
2021/12/04 08:18:26;;;;;;;9.80;7.83;;;1.70;99.90;;;;;;5115028;28;20097;-76
2021/12/04 08:20:53;;;;;;;7.80;6.83;;;1.70;99.90;;;;;;5115205;28;20403;-76
2021/12/04 08:23:20;;;;;;;8.90;6.07;;;1.80;99.90;;;;;;5115032;28;20100;-77
2021/12/04 08:25:48;;;;;;;10.77;7.23;;;1.80;99.90;;;;;;5113711;28;20442;-77
2021/12/04 08:28:16;;;;;;;13.27;9.17;;;1.80;99.90;;;;;;5114880;28;20108;-76
2021/12/04 08:30:44;;;;;;;11.40;7.00;;;1.90;99.90;;;;;;5114671;28;20048;-77
2021/12/04 08:33:12;;;;;;;16.60;8.57;;;1.80;99.90;;;;;;5114921;28;20491;-76
2021/12/04 08:35:40;;;;;;;10.97;7.57;;;1.70;99.90;;;;;;5114161;28;20051;-77
2021/12/04 08:38:08;;;;;;;10.70;7.87;;;1.80;99.90;;;;;;5114634;28;20039;-73
2021/12/04 08:40:35;;;;;;;10.27;6.00;;;1.70;99.90;;;;;;5114641;28;20047;-74
2021/12/04 08:43:02;;;;;;;9.17;6.37;;;1.80;99.90;;;;;;5115290;28;20043;-75
2021/12/04 08:45:30;;;;;;;12.00;10.00;;;1.90;99.90;;;;;;5113840;28;20450;-75
2021/12/04 08:47:58;;;;;;;13.43;8.77;;;1.90;99.90;;;;;;5114528;28;20492;-75
2021/12/04 08:50:27;;;;;;;11.70;8.07;;;1.90;99.90;;;;;;5114546;28;20052;-74
2021/12/04 08:52:55;;;;;;;8.40;6.77;;;1.90;99.90;;;;;;5114736;28;20044;-77
2021/12/04 08:55:22;;;;;;;10.43;7.33;;;1.90;99.90;;;;;;5113997;28;20499;-75
2021/12/04 08:57:52;;;;;;;17.93;8.33;;;1.80;99.90;;;;;;5114198;28;20051;-76
2021/12/04 09:00:23;;;;;;;10.37;7.20;;;1.90;99.90;;;;;;5115324;28;20063;-79
2021/12/04 09:02:51;;;;;;;11.05;6.88;;;2.00;99.90;;;;;;5117223;28;20040;-77
2021/12/04 09:05:20;;;;;;;10.87;7.10;;;2.00;99.90;;;;;;5116494;28;20461;-79
2021/12/04 09:07:48;;;;;;;10.20;7.63;;;2.00;99.90;;;;;;5118606;28;20457;-79
2021/12/04 09:10:16;;;;;;;15.03;9.30;;;2.10;99.90;;;;;;5117490;28;20044;-79
2021/12/04 09:12:44;;;;;;;6.80;5.07;;;2.00;99.90;;;;;;5118522;27;20124;-82
2021/12/04 09:15:13;;;;;;;9.37;6.73;;;2.10;99.90;;;;;;5118380;28;20069;-81
2021/12/04 09:17:40;;;;;;;13.40;7.20;;;2.00;99.90;;;;;;5120648;28;20568;-79
2021/12/04 09:20:08;;;;;;;10.40;7.17;;;2.00;99.90;;;;;;5117981;28;20047;-79
2021/12/04 09:22:37;;;;;;;13.47;6.47;;;2.00;99.90;;;;;;5114157;28;20491;-76
2021/12/04 09:25:06;;;;;;;12.30;8.17;;;1.90;99.90;;;;;;5113629;28;20380;-77
2021/12/04 09:27:46;;;;;;;15.37;8.83;;;2.00;99.90;;;;;;5114428;28;20048;-76
2021/12/04 09:30:36;;;;;;;13.40;8.77;;;2.00;99.90;;;;;;5113510;28;20126;-74
2021/12/04 10:00:51;;;;;;;13.77;7.73;;;2.10;99.90;;;;;;5113099;28;20510;-74
2021/12/04 10:06:28;;;;;;;12.70;8.97;;;2.10;99.90;;;;;;5109571;27;20479;-77
2021/12/04 10:12:10;;;;;;;17.60;7.77;;;2.10;99.90;;;;;;5113551;28;20457;-75
2021/12/04 10:15:16;;;;;;;10.27;8.03;;;2.20;99.90;;;;;;5113015;28;20481;-77
2021/12/04 10:20:51;;;;;;;13.33;9.53;;;2.30;99.90;;;;;;5112608;28;20128;-77
2021/12/04 10:23:47;;;;;;;14.73;9.13;;;2.40;99.90;;;;;;5112911;28;20152;-77
2021/12/04 10:34:49;;;;;;;17.03;8.00;;;2.30;99.90;;;;;;5111618;27;20127;-74
2021/12/04 10:37:24;;;;;;;13.20;9.70;;;2.30;99.90;;;;;;5112404;28;20055;-74
2021/12/04 10:39:52;;;;;;;9.13;7.07;;;2.30;99.90;;;;;;5112314;28;20419;-75
2021/12/04 10:42:22;;;;;;;12.57;8.17;;;2.40;99.90;;;;;;5112506;28;20047;-75
2021/12/04 10:44:53;;;;;;;10.13;8.83;;;2.30;99.90;;;;;;5111807;28;20050;-77
2021/12/04 10:47:24;;;;;;;11.45;7.72;;;2.30;99.90;;;;;;5112443;28;20043;-76
2021/12/04 10:49:59;;;;;;;10.63;7.63;;;2.30;99.90;;;;;;5112369;28;20047;-78
2021/12/04 10:52:33;;;;;;;10.43;8.37;;;2.20;99.90;;;;;;5112650;28;20071;-77
2021/12/04 10:55:11;;;;;;;12.13;7.73;;;2.30;99.90;;;;;;5111863;28;20388;-77
2021/12/04 10:58:08;;;;;;;13.77;8.57;;;2.30;99.90;;;;;;5112680;28;20130;-76
2021/12/04 11:00:44;;;;;;;14.20;8.40;;;2.30;99.90;;;;;;5112033;28;20040;-76
2021/12/04 11:03:27;;;;;;;11.30;7.43;;;2.30;99.90;;;;;;5112554;28;20077;-75
2021/12/04 11:23:16;;;;;;;9.63;6.70;;;2.30;99.90;;;;;;5112050;28;20050;-74
2021/12/04 11:28:58;;;;;;;10.30;9.13;;;2.20;99.90;;;;;;5096953;27;20514;-74
2021/12/04 11:39:55;;;;;;;18.97;8.63;;;2.30;99.90;;;;;;5109452;27;20418;-74
2021/12/04 11:42:29;;;;;;;13.27;9.63;;;2.30;99.90;;;;;;5111421;28;20483;-75
2021/12/04 11:45:09;;;;;;;12.90;7.37;;;2.30;99.90;;;;;;5111458;28;20044;-75
2021/12/04 11:47:41;;;;;;;14.23;9.43;;;2.40;99.90;;;;;;5111874;28;20388;-74
2021/12/04 11:50:21;;;;;;;12.03;7.53;;;2.40;99.90;;;;;;5112080;28;20047;-76
2021/12/04 11:52:53;;;;;;;7.47;5.87;;;2.40;99.90;;;;;;5111704;28;20040;-75
2021/12/04 11:55:21;;;;;;;11.70;8.63;;;2.30;99.90;;;;;;5111667;28;20070;-74
2021/12/04 11:57:49;;;;;;;14.47;8.40;;;2.40;99.90;;;;;;5111686;28;20132;-75
2021/12/04 12:00:21;;;;;;;10.53;5.67;;;2.30;99.90;;;;;;5112581;28;20043;-74
2021/12/04 12:02:48;;;;;;;10.50;7.20;;;2.40;99.90;;;;;;5115278;28;20047;-76
2021/12/04 12:05:19;;;;;;;13.13;10.03;;;2.40;99.90;;;;;;5114563;28;20427;-74
2021/12/04 12:07:55;;;;;;;10.87;6.57;;;2.40;99.90;;;;;;5115158;28;20078;-75
2021/12/04 12:10:26;;;;;;;10.57;6.43;;;2.30;99.90;;;;;;5115381;28;20040;-76
2021/12/04 12:12:56;;;;;;;12.27;8.20;;;2.40;99.90;;;;;;5114854;28;20397;-76
2021/12/04 12:15:30;;;;;;;9.77;8.37;;;2.40;99.90;;;;;;5114497;28;20039;-77
2021/12/04 12:17:57;;;;;;;11.57;8.27;;;2.50;99.90;;;;;;5115217;28;20051;-76
2021/12/04 12:20:38;;;;;;;11.10;8.37;;;2.40;99.90;;;;;;5115118;28;20483;-77
2021/12/04 12:23:08;;;;;;;9.68;6.53;;;2.30;99.90;;;;;;5115258;28;20047;-76
2021/12/04 12:25:51;;;;;;;13.20;7.33;;;2.30;99.90;;;;;;5114516;28;20139;-76
2021/12/04 12:33:59;;;;;;;8.37;6.20;;;2.30;99.90;;;;;;5114633;28;20082;-77
2021/12/04 12:36:30;;;;;;;13.40;9.03;;;2.30;99.90;;;;;;5114665;28;20142;-76
2021/12/04 12:38:59;;;;;;;11.17;7.60;;;2.40;99.90;;;;;;5114786;27;20488;-76
2021/12/04 12:41:29;;;;;;;7.70;5.60;;;2.40;99.90;;;;;;5114469;28;20048;-77
2021/12/04 12:44:05;;;;;;;10.33;8.30;;;2.50;99.90;;;;;;5114369;28;20059;-79
2021/12/04 12:46:41;;;;;;;11.43;6.93;;;2.50;99.90;;;;;;5114184;28;20460;-76
2021/12/04 12:49:20;;;;;;;8.07;6.67;;;2.50;99.90;;;;;;5114836;28;20048;-78
2021/12/04 12:51:55;;;;;;;10.97;7.53;;;2.50;99.90;;;;;;5114339;28;20054;-75
2021/12/04 12:54:29;;;;;;;10.47;7.67;;;2.50;99.90;;;;;;5113852;28;20108;-74
2021/12/04 12:57:04;;;;;;;8.70;5.73;;;2.40;99.90;;;;;;5114313;28;20492;-74
2021/12/04 12:59:38;;;;;;;11.20;6.73;;;2.40;99.90;;;;;;5114570;28;20052;-75
2021/12/04 13:13:26;;;;;;;8.60;6.00;;;2.50;99.90;;;;;;5113663;28;20092;-74
2021/12/04 13:15:54;;;;;;;9.37;7.20;;;2.50;99.90;;;;;;5113070;28;20116;-73
2021/12/04 13:18:22;;;;;;;12.40;6.63;;;2.50;99.90;;;;;;5114104;28;20043;-76
2021/12/04 13:20:50;;;;;;;9.87;8.73;;;2.50;99.90;;;;;;5113850;28;20049;-75
2021/12/04 13:23:23;;;;;;;10.47;7.20;;;2.50;99.90;;;;;;5113898;28;20077;-77
2021/12/04 13:25:53;;;;;;;9.53;7.10;;;2.50;99.90;;;;;;5112493;28;20048;-76
2021/12/04 13:28:23;;;;;;;11.97;8.20;;;2.50;99.90;;;;;;5113645;28;20406;-77
2021/12/04 13:30:50;;;;;;;12.97;7.80;;;2.50;99.90;;;;;;5113730;28;20046;-75
2021/12/04 13:33:18;;;;;;;13.60;7.97;;;2.50;99.90;;;;;;5113667;28;20047;-76
2021/12/04 13:35:46;;;;;;;10.10;7.47;;;2.40;99.90;;;;;;5113225;28;20400;-76
2021/12/04 13:38:14;;;;;;;11.77;8.00;;;2.40;99.90;;;;;;5113646;28;20052;-76
2021/12/04 13:40:48;;;;;;;14.50;9.23;;;2.40;99.90;;;;;;5113407;28;20093;-77
2021/12/04 13:43:15;;;;;;;12.03;8.53;;;2.40;99.90;;;;;;5113478;28;20456;-79
2021/12/04 13:45:43;;;;;;;9.93;7.23;;;2.40;99.90;;;;;;5113197;28;20051;-74
2021/12/04 13:48:10;;;;;;;10.37;7.37;;;2.30;99.90;;;;;;5113271;28;20410;-74
2021/12/04 13:50:45;;;;;;;15.07;8.97;;;2.30;99.90;;;;;;5113614;28;20048;-75
2021/12/04 13:53:16;;;;;;;10.00;7.00;;;2.30;99.90;;;;;;5113046;28;20138;-76
2021/12/04 13:55:48;;;;;;;9.60;8.25;;;2.30;99.90;;;;;;5112295;28;20043;-77
2021/12/04 13:58:16;;;;;;;10.17;8.50;;;2.30;99.90;;;;;;5112770;28;20047;-79
2021/12/04 14:00:44;;;;;;;9.93;7.27;;;2.30;99.90;;;;;;5113067;28;20047;-74
2021/12/04 14:03:11;;;;;;;10.50;8.03;;;2.30;99.90;;;;;;5112978;28;20495;-74
2021/12/04 14:05:40;;;;;;;11.27;7.07;;;2.30;99.90;;;;;;5112111;28;20059;-75
2021/12/04 14:08:10;;;;;;;12.03;7.77;;;2.30;99.90;;;;;;5112626;28;20488;-73
2021/12/04 14:10:41;;;;;;;11.00;7.70;;;2.30;99.90;;;;;;5112785;28;20047;-73
2021/12/04 14:13:11;;;;;;;11.27;7.43;;;2.30;99.90;;;;;;5113005;28;20075;-73
2021/12/04 14:15:43;;;;;;;12.40;8.47;;;2.30;99.90;;;;;;5112201;28;20044;-76
2021/12/04 14:18:10;;;;;;;;;;;2.20;99.90;;;;;;5113277;28;20047;-76
2021/12/04 14:20:40;;;;;;;11.93;8.23;;;2.20;99.90;;;;;;5112553;28;20379;-76
2021/12/04 14:23:08;;;;;;;13.23;8.80;;;2.20;99.90;;;;;;5114253;28;20050;-78
2021/12/04 14:25:42;;;;;;;13.13;8.60;;;2.20;99.90;;;;;;5112353;28;20039;-75
2021/12/04 14:28:12;;;;;;;13.57;9.33;;;2.10;99.90;;;;;;5112697;28;20052;-75
2021/12/04 14:30:45;;;;;;;10.00;7.53;;;2.10;99.90;;;;;;5112590;28;20047;-76
2021/12/04 14:33:15;;;;;;;13.93;8.77;;;2.10;99.90;;;;;;5112580;28;20051;-75
2021/12/04 14:35:44;;;;;;;10.50;7.73;;;2.10;99.90;;;;;;5112059;28;20479;-75
2021/12/04 14:38:13;;;;;;;13.00;8.90;;;2.10;99.90;;;;;;5112652;28;20047;-77
2021/12/04 14:40:43;;;;;;;7.53;6.27;;;2.10;99.90;;;;;;5112280;28;20048;-76
2021/12/04 14:43:12;;;;;;;9.87;8.40;;;2.10;99.90;;;;;;5112311;28;20513;-76
2021/12/04 14:45:43;;;;;;;11.13;8.57;;;2.10;99.90;;;;;;5111834;28;20093;-73
2021/12/04 14:48:12;;;;;;;18.63;10.73;;;2.10;99.90;;;;;;5112549;28;20043;-74
2021/12/04 14:50:42;;;;;;;14.07;9.70;;;2.10;99.90;;;;;;5112091;28;20438;-74
2021/12/04 14:53:12;;;;;;;19.40;10.87;;;2.10;99.90;;;;;;5112037;28;20495;-73
2021/12/04 14:55:40;;;;;;;16.50;11.63;;;2.10;99.90;;;;;;5111448;28;20046;-75
2021/12/04 14:58:11;;;;;;;17.27;10.77;;;2.10;99.90;;;;;;5111933;28;20055;-74
2021/12/04 15:00:41;;;;;;;19.43;12.77;;;2.10;99.90;;;;;;5112172;28;20411;-75
2021/12/04 15:03:10;;;;;;;13.80;11.70;;;2.10;99.90;;;;;;5112405;28;20108;-77
2021/12/04 15:05:39;;;;;;;16.70;10.80;;;2.10;99.90;;;;;;5111328;28;20509;-75
2021/12/04 15:08:08;;;;;;;9.63;8.23;;;2.00;99.90;;;;;;5112055;28;20160;-75
2021/12/04 15:10:36;;;;;;;12.63;8.57;;;2.00;99.90;;;;;;5111872;28;20067;-78
2021/12/04 15:13:05;;;;;;;11.90;7.63;;;2.00;99.90;;;;;;5112035;28;20066;-76
2021/12/04 15:15:35;;;;;;;7.33;6.40;;;2.00;99.90;;;;;;5111165;28;20482;-76
2021/12/04 15:18:08;;;;;;;9.30;7.70;;;2.00;99.90;;;;;;5111721;28;20052;-77
2021/12/04 15:20:38;;;;;;;12.53;7.40;;;2.00;99.90;;;;;;5111846;28;20044;-75